Gillette, WY

9:50 PM MDT on August 30, 2014 (GMT -0600)
RAWS ECHETA WY US | Change Station
CLOSE
Current Station
Personal Weather Station
Location: Gillette, WY
Elevation: 4396 ft
Nearby Weather Stations

Elev 4396 ft 44.47 °N, 105.84 °W | Updated 59 minutes ago

Overcast
Overcast
57 °F
Feels Like 57 °F
N
5
Wind Variable Wind from South
Gusts 7.0 mph

Today
High -- | Low -- °F
--% Chance of Precip.
Yesterday
High -- | Low -- °F
Precip. -- in
6:22 AM 7:42 PM
Waxing Crescent, 27% visible
Pressure 29.84 in
Visibility 10.0 miles
Clouds Few 7000 ft
Overcast 9000 ft
Dew Point 56 °F
Humidity 96%
Rainfall 0.08 in
Snow Depth Not available.
UV 0 out of 12
Pollen 8.50 out of 12
Air Quality Not available.
Flu Activity Not available.
METAR KGCC 310253Z AUTO 21004KT 10SM FEW070 OVC090 13/12 A2984

More Conditions Fewer Conditions

Pressure 29.84 in
Visibility 10.0 miles
Clouds Few 7000 ft
Overcast 9000 ft
Dew Point 56 °F
Humidity 96%
Rainfall 0.08 in
Snow Depth Not available.
UV 0 out of 12
Pollen 8.50 out of 12
Air Quality Not available.
Flu Activity Not available.
METAR KGCC 310253Z AUTO 21004KT 10SM FEW070 OVC090 13/12 A2984

More Conditions Fewer Conditions

10-Day Weather Forecast

Almanac

Astronomy

Aug. 30, 2014 Rise Set
Actual Time 6:22 AM MDT 7:42 PM MDT
Civil Twilight 5:52 AM MDT 8:12 PM MDT
Nautical Twilight 5:16 AM MDT 8:49 PM MDT
Astronomical Twilight 4:37 AM MDT 9:27 PM MDT
Moon 11:26 AM MDT (8/30) 10:05 PM MDT (8/30)
Length of Visible Light 14h 20m
Length of Day
13h 19m
Tomorrow will be 2m 58s shorter.
Waxing Crescent, 27% of the Moon is Illuminated
Today
Waxing Crescent
Sep 2
First Quarter
Sep 8
Full
Sep 15
Last Quarter
Sep 24
New

Today's Extremes

State Highs State Lows

Community

WunderPhotos

Upload Photos

1,748,773 photos uploaded!

Nearby

Snow Depth

Station Depth Elevation
Cole Canyon 0 in 5910 ft
Hansen Sawmill 1 in 8360 ft
Cloud Peak Reservoir 0 in 9860 ft
Big Goose 0 in 7990 ft
Powder River Pass 0 in 9480 ft

Earthquake Activity

City Distance Mag. Time & Date
No recent earthquake activity has been reported nearby.
Minimum magnitude displayed is 2.5.

Coastal Water Temperatures

Place Temperature
No Stations Reporting

Nearby Weather Stations